Time;durP1;ratioP1;P1;durP2;ratioP2;P2;SDS_P1;SDS_P2;PMS_P1;PMS_P2;Temp;Humidity;BMP_temperature;BMP_pressure;BME280_temperature;BME280_humidity;BME280_pressure;Samples;Min_cycle;Max_cycle;Signal;HPM_P1;HPM_P2
2024/01/19 00:01:21;;;;;;;39.75;19.83;;;-1.90;99.90;;;;;;5051547;28;20351;-58
2024/01/19 00:03:49;;;;;;;34.63;18.75;;;-2.00;99.90;;;;;;5051479;28;20297;-59
2024/01/19 00:06:17;;;;;;;38.42;19.48;;;-1.90;99.90;;;;;;5051628;28;20256;-60
2024/01/19 00:08:45;;;;;;;45.20;20.08;;;-2.00;99.90;;;;;;5050952;28;20264;-59
2024/01/19 00:11:14;;;;;;;33.35;19.55;;;-2.00;99.90;;;;;;5051557;28;20625;-59
2024/01/19 00:13:42;;;;;;;45.97;20.48;;;-2.00;99.90;;;;;;5051280;28;20210;-59
2024/01/19 00:16:10;;;;;;;41.45;18.75;;;-2.00;99.90;;;;;;5051567;28;20248;-59
2024/01/19 00:18:39;;;;;;;37.60;19.83;;;-2.00;99.90;;;;;;5051098;28;20271;-60
2024/01/19 00:21:07;;;;;;;40.83;20.02;;;-2.00;99.90;;;;;;5051296;28;20201;-60
2024/01/19 00:23:35;;;;;;;35.63;17.98;;;-2.00;99.90;;;;;;5051073;28;20230;-59
2024/01/19 00:26:03;;;;;;;36.05;19.65;;;-2.10;99.90;;;;;;5048055;28;20210;-60
2024/01/19 00:28:31;;;;;;;39.78;20.00;;;-2.20;99.90;;;;;;5049756;28;20687;-60
2024/01/19 00:30:59;;;;;;;47.90;20.20;;;-2.20;99.90;;;;;;5050680;28;20248;-59
2024/01/19 00:33:26;;;;;;;35.67;19.23;;;-2.30;99.90;;;;;;5052935;28;20225;-59
2024/01/19 00:35:56;;;;;;;37.53;18.88;;;-2.30;99.90;;;;;;5054718;28;20293;-59
2024/01/19 00:38:24;;;;;;;34.03;18.83;;;-2.30;99.90;;;;;;5055247;28;20309;-60
2024/01/19 00:40:52;;;;;;;33.63;17.45;;;-2.30;99.90;;;;;;5054974;28;20230;-59
2024/01/19 00:43:20;;;;;;;39.80;20.02;;;-2.40;99.90;;;;;;5055063;28;20569;-60
2024/01/19 00:45:48;;;;;;;39.60;18.17;;;-2.40;99.90;;;;;;5055275;28;20632;-58
2024/01/19 00:48:15;;;;;;;39.08;18.88;;;-2.40;99.90;;;;;;5055002;28;20202;-60
2024/01/19 00:50:43;;;;;;;35.22;18.02;;;-2.40;99.90;;;;;;5055002;28;20637;-59
2024/01/19 00:53:13;;;;;;;35.53;18.40;;;-2.40;99.90;;;;;;5054801;28;20685;-59
2024/01/19 00:55:40;;;;;;;32.95;17.42;;;-2.40;99.90;;;;;;5055104;28;20198;-59
2024/01/19 00:58:10;;;;;;;35.78;18.40;;;-2.40;99.90;;;;;;5055015;28;20221;-59
2024/01/19 01:00:38;;;;;;;37.38;18.55;;;-2.50;99.90;;;;;;5054722;28;20218;-59
2024/01/19 01:03:06;;;;;;;35.10;17.55;;;-2.50;99.90;;;;;;5054698;28;20676;-59
2024/01/19 01:05:34;;;;;;;32.10;17.10;;;-2.50;99.90;;;;;;5054776;28;20705;-59
2024/01/19 01:08:02;;;;;;;35.53;19.55;;;-2.50;99.90;;;;;;5054888;28;20212;-59
2024/01/19 01:10:31;;;;;;;36.45;19.38;;;-2.60;99.90;;;;;;5054474;28;20264;-59
2024/01/19 01:13:01;;;;;;;38.67;19.90;;;-2.60;99.90;;;;;;5054556;28;20293;-58
2024/01/19 01:15:29;;;;;;;37.03;18.98;;;-2.60;99.90;;;;;;5054687;28;20626;-58
2024/01/19 01:17:57;;;;;;;36.47;19.08;;;-2.70;99.90;;;;;;5054632;28;20198;-58
2024/01/19 01:20:25;;;;;;;37.47;18.65;;;-2.70;99.90;;;;;;5054515;28;20330;-59
2024/01/19 01:22:53;;;;;;;37.63;19.83;;;-2.70;99.90;;;;;;5054429;28;20726;-59
2024/01/19 01:25:21;;;;;;;37.33;18.33;;;-2.70;99.90;;;;;;5054712;28;20309;-59
2024/01/19 01:27:50;;;;;;;38.92;19.10;;;-2.70;99.90;;;;;;5054291;28;20210;-60
2024/01/19 01:30:18;;;;;;;35.45;18.40;;;-2.70;99.90;;;;;;5053989;28;20623;-58
2024/01/19 01:32:46;;;;;;;33.13;18.33;;;-2.70;99.90;;;;;;5054496;28;20236;-59
2024/01/19 01:35:14;;;;;;;33.47;18.08;;;-2.70;99.90;;;;;;5054498;28;20210;-59
2024/01/19 01:37:42;;;;;;;41.40;18.55;;;-2.80;99.90;;;;;;5054359;28;20206;-59
2024/01/19 01:40:11;;;;;;;32.10;17.10;;;-2.80;99.90;;;;;;5053884;28;20287;-59
2024/01/19 01:42:39;;;;;;;39.03;18.27;;;-2.80;99.90;;;;;;5054124;28;20202;-60
2024/01/19 01:45:09;;;;;;;35.95;18.45;;;-2.80;99.90;;;;;;5053347;28;20672;-60
2024/01/19 01:47:37;;;;;;;34.60;18.33;;;-2.90;99.90;;;;;;5054179;28;20332;-61
2024/01/19 01:50:06;;;;;;;36.75;19.02;;;-2.90;99.90;;;;;;5053576;28;20222;-60
2024/01/19 01:52:34;;;;;;;34.28;19.45;;;-2.90;99.90;;;;;;5054042;28;20335;-59
2024/01/19 01:55:02;;;;;;;37.33;19.05;;;-2.90;99.90;;;;;;5053695;28;20720;-60
2024/01/19 01:57:30;;;;;;;34.80;17.02;;;-2.90;99.90;;;;;;5054146;28;20227;-60
2024/01/19 01:59:58;;;;;;;29.70;15.80;;;-2.90;99.90;;;;;;5053183;28;20737;-59
2024/01/19 02:02:27;;;;;;;30.98;17.13;;;-2.90;99.90;;;;;;5053957;28;20206;-59
2024/01/19 02:04:55;;;;;;;33.35;16.30;;;-2.90;99.90;;;;;;5053434;28;20216;-60
2024/01/19 02:07:23;;;;;;;31.65;16.13;;;-2.90;99.90;;;;;;5053722;28;20202;-61
2024/01/19 02:09:51;;;;;;;27.13;15.90;;;-2.90;99.90;;;;;;5053046;28;20245;-60
2024/01/19 02:12:19;;;;;;;32.25;16.13;;;-2.90;99.90;;;;;;5053794;28;20206;-59
2024/01/19 02:14:46;;;;;;;33.75;16.42;;;-3.00;99.90;;;;;;5053564;28;20636;-60
2024/01/19 02:17:15;;;;;;;33.03;16.25;;;-3.00;99.90;;;;;;5053872;28;20862;-60
2024/01/19 02:19:44;;;;;;;29.48;16.02;;;-3.00;99.90;;;;;;5053733;28;20218;-59
2024/01/19 02:22:12;;;;;;;29.08;15.00;;;-3.00;99.90;;;;;;5052988;28;20202;-58
2024/01/19 02:24:41;;;;;;;28.65;14.73;;;-3.00;99.90;;;;;;5052610;28;20230;-59
2024/01/19 02:27:09;;;;;;;24.45;14.48;;;-3.10;99.90;;;;;;5051731;28;20293;-59
2024/01/19 02:29:37;;;;;;;27.98;14.40;;;-3.10;99.90;;;;;;5045918;28;20310;-58
2024/01/19 02:32:05;;;;;;;26.58;14.95;;;-3.10;99.90;;;;;;5044601;28;20202;-61
2024/01/19 02:34:33;;;;;;;26.75;14.48;;;-3.20;99.90;;;;;;5052806;28;20244;-58
2024/01/19 02:37:01;;;;;;;27.10;13.77;;;-3.20;99.90;;;;;;5053076;28;20202;-58
2024/01/19 02:39:28;;;;;;;28.80;14.27;;;-3.20;99.90;;;;;;5052519;28;20283;-58
2024/01/19 02:41:58;;;;;;;33.67;14.25;;;-3.30;99.90;;;;;;5052043;28;20242;-58
2024/01/19 02:44:25;;;;;;;28.33;14.25;;;-3.30;99.90;;;;;;5052615;28;20673;-60
2024/01/19 02:46:54;;;;;;;28.27;13.55;;;-3.30;99.90;;;;;;5052909;28;20225;-59
2024/01/19 02:49:21;;;;;;;26.15;12.60;;;-3.30;99.90;;;;;;5052371;28;20809;-57
2024/01/19 02:51:49;;;;;;;24.38;13.07;;;-3.30;99.90;;;;;;5052691;28;20206;-58
2024/01/19 02:54:17;;;;;;;25.35;12.98;;;-3.30;99.90;;;;;;5052772;28;20264;-58
2024/01/19 02:56:45;;;;;;;27.10;13.00;;;-3.40;99.90;;;;;;5051586;28;20242;-59
2024/01/19 02:59:14;;;;;;;27.35;13.45;;;-3.30;99.90;;;;;;5052383;28;20226;-59
2024/01/19 03:01:42;;;;;;;28.95;13.13;;;-3.40;99.90;;;;;;5052697;28;20284;-59
2024/01/19 03:04:10;;;;;;;26.85;13.75;;;-3.40;99.90;;;;;;5052477;28;20213;-60
2024/01/19 03:06:39;;;;;;;23.95;12.10;;;-3.40;99.90;;;;;;5052693;28;20212;-58
2024/01/19 03:09:07;;;;;;;28.98;14.07;;;-3.40;99.90;;;;;;5044278;28;20605;-59
2024/01/19 03:11:35;;;;;;;25.83;12.75;;;-3.50;99.90;;;;;;5051849;28;20229;-59
2024/01/19 03:14:03;;;;;;;24.00;11.85;;;-3.50;99.90;;;;;;5052036;28;20213;-58
2024/01/19 03:16:32;;;;;;;24.70;12.80;;;-3.50;99.90;;;;;;5051947;28;20643;-60
2024/01/19 03:19:05;;;;;;;25.80;12.52;;;-3.50;99.90;;;;;;5050511;28;20225;-58
2024/01/19 03:21:32;;;;;;;24.83;13.10;;;-3.50;99.90;;;;;;5052087;28;20198;-59
2024/01/19 03:24:00;;;;;;;28.42;12.48;;;-3.50;99.90;;;;;;5051932;28;20317;-60
2024/01/19 03:26:29;;;;;;;22.20;12.13;;;-3.60;99.90;;;;;;5050655;28;20207;-59
2024/01/19 03:28:57;;;;;;;24.08;12.52;;;-3.60;99.90;;;;;;5050800;28;20276;-60
2024/01/19 03:31:25;;;;;;;27.73;12.35;;;-3.60;99.90;;;;;;5052058;28;20206;-59
2024/01/19 03:33:54;;;;;;;22.48;12.18;;;-3.60;99.90;;;;;;5051629;28;20206;-59
2024/01/19 03:36:24;;;;;;;24.10;11.40;;;-3.60;99.90;;;;;;5052083;28;20643;-59
2024/01/19 03:38:52;;;;;;;20.88;10.88;;;-3.60;99.90;;;;;;5051619;28;20226;-58
2024/01/19 03:41:20;;;;;;;26.13;11.65;;;-3.60;99.90;;;;;;5050882;28;20225;-58
2024/01/19 03:43:48;;;;;;;22.73;11.45;;;-3.60;99.90;;;;;;5051771;28;20233;-59
2024/01/19 03:46:16;;;;;;;21.83;12.07;;;-3.60;99.90;;;;;;5051732;28;20240;-58
2024/01/19 03:48:44;;;;;;;18.33;10.85;;;-3.60;99.90;;;;;;5051266;28;20296;-60
2024/01/19 03:51:14;;;;;;;19.33;10.55;;;-3.60;99.90;;;;;;5051719;28;20209;-59
2024/01/19 03:53:43;;;;;;;19.67;10.48;;;-3.60;99.90;;;;;;5051757;28;20264;-59
2024/01/19 03:56:12;;;;;;;20.55;11.07;;;-3.60;99.90;;;;;;5051832;28;20268;-60
2024/01/19 03:58:40;;;;;;;18.08;10.60;;;-3.60;99.90;;;;;;5051561;28;20630;-58
2024/01/19 04:01:08;;;;;;;23.33;10.77;;;-3.60;99.90;;;;;;5051530;28;20263;-59
2024/01/19 04:03:36;;;;;;;20.10;10.98;;;-3.70;99.90;;;;;;5051302;28;20285;-59
2024/01/19 04:06:04;;;;;;;20.63;10.95;;;-3.70;99.90;;;;;;5051535;28;20213;-59
2024/01/19 04:08:33;;;;;;;23.13;11.15;;;-3.70;99.90;;;;;;5051095;28;20268;-59
2024/01/19 04:11:01;;;;;;;24.15;11.60;;;-3.70;99.90;;;;;;5051270;28;20213;-58
2024/01/19 04:13:29;;;;;;;22.42;10.70;;;-3.70;99.90;;;;;;5051412;28;20217;-58
2024/01/19 04:15:57;;;;;;;21.33;10.57;;;-3.70;99.90;;;;;;5050464;28;20205;-58
2024/01/19 04:18:25;;;;;;;19.67;11.48;;;-3.80;99.90;;;;;;5051137;28;20280;-59
2024/01/19 04:20:53;;;;;;;20.25;11.23;;;-3.80;99.90;;;;;;5051013;28;20237;-58
2024/01/19 04:23:21;;;;;;;21.25;11.43;;;-3.80;99.90;;;;;;5051566;28;20198;-59
2024/01/19 04:25:50;;;;;;;19.75;11.23;;;-3.80;99.90;;;;;;5051312;28;20201;-58
2024/01/19 04:28:18;;;;;;;23.17;11.40;;;-3.80;99.90;;;;;;5051347;28;20649;-59
2024/01/19 04:30:46;;;;;;;22.88;11.55;;;-3.80;99.90;;;;;;5049716;28;20800;-59
2024/01/19 04:33:14;;;;;;;24.70;11.82;;;-3.80;99.90;;;;;;5051118;28;20820;-59
2024/01/19 04:35:42;;;;;;;19.60;11.38;;;-3.80;99.90;;;;;;5050974;28;20272;-58
2024/01/19 04:38:10;;;;;;;26.92;11.75;;;-3.90;99.90;;;;;;5051419;28;20256;-58
2024/01/19 04:40:38;;;;;;;21.45;10.90;;;-3.90;99.90;;;;;;5050622;28;20726;-58
2024/01/19 04:43:07;;;;;;;21.23;11.85;;;-3.90;99.90;;;;;;5050460;28;20238;-58
2024/01/19 04:45:35;;;;;;;23.27;12.00;;;-3.90;99.90;;;;;;5050739;28;20934;-58
2024/01/19 04:48:03;;;;;;;21.73;12.38;;;-4.00;99.90;;;;;;5051169;28;20252;-59
2024/01/19 04:50:31;;;;;;;22.30;11.98;;;-4.00;99.90;;;;;;5050748;28;20214;-59
2024/01/19 04:52:59;;;;;;;24.80;12.18;;;-4.00;99.90;;;;;;5051237;28;20208;-59
2024/01/19 04:55:27;;;;;;;23.85;11.40;;;-4.00;99.90;;;;;;5050950;28;20264;-59
2024/01/19 04:57:55;;;;;;;21.70;11.82;;;-4.00;99.90;;;;;;5050978;28;20237;-60
2024/01/19 05:00:24;;;;;;;18.85;11.38;;;-4.00;99.90;;;;;;5050658;28;20258;-59
2024/01/19 05:02:52;;;;;;;19.67;11.18;;;-4.10;99.90;;;;;;5051113;28;20206;-57
2024/01/19 05:05:20;;;;;;;21.20;10.73;;;-4.10;99.90;;;;;;5045117;28;20735;-58
2024/01/19 05:07:48;;;;;;;20.92;11.07;;;-4.10;99.90;;;;;;5051182;28;20210;-60
2024/01/19 05:10:16;;;;;;;21.23;10.90;;;-4.10;99.90;;;;;;5057874;22;20284;-74
2024/01/19 05:12:44;;;;;;;18.20;10.70;;;-4.10;99.90;;;;;;5050538;28;20569;-74
2024/01/19 05:15:12;;;;;;;22.40;11.27;;;-4.10;99.90;;;;;;5050593;28;20324;-74
2024/01/19 05:17:41;;;;;;;18.55;10.00;;;-4.20;99.90;;;;;;5047162;28;20268;-74
2024/01/19 05:20:11;;;;;;;24.10;11.45;;;-4.20;99.90;;;;;;5050287;28;20691;-74
2024/01/19 05:22:39;;;;;;;20.98;10.52;;;-4.20;99.90;;;;;;5054309;28;20656;-73
2024/01/19 05:25:08;;;;;;;20.33;11.10;;;-4.20;99.90;;;;;;5054386;28;20283;-74
2024/01/19 05:27:36;;;;;;;19.17;11.20;;;-4.20;99.90;;;;;;5052810;28;20202;-74
2024/01/19 05:30:05;;;;;;;22.33;10.82;;;-4.20;99.90;;;;;;5050364;28;20206;-73
2024/01/19 05:32:34;;;;;;;24.75;11.32;;;-4.20;99.90;;;;;;5054336;28;20301;-74
2024/01/19 05:37:42;;;;;;;21.35;10.80;;;-4.20;99.90;;;;;;5015532;28;20214;-56
2024/01/19 05:40:10;;;;;;;20.55;11.45;;;-4.30;99.90;;;;;;5020489;28;20231;-58
2024/01/19 05:42:38;;;;;;;21.63;11.13;;;-4.30;99.90;;;;;;5021016;28;20313;-56
2024/01/19 05:45:07;;;;;;;24.00;11.25;;;-4.30;99.90;;;;;;5025596;28;20665;-56
2024/01/19 05:47:36;;;;;;;26.80;12.60;;;-4.30;99.90;;;;;;5019663;28;20285;-57
2024/01/19 05:50:04;;;;;;;23.60;11.93;;;-4.30;99.90;;;;;;5014035;28;20242;-58
2024/01/19 05:52:32;;;;;;;23.25;11.23;;;-4.30;99.90;;;;;;5013013;28;20231;-59
2024/01/19 05:55:02;;;;;;;21.83;11.55;;;-4.30;99.90;;;;;;5029227;28;20298;-58
2024/01/19 05:57:30;;;;;;;25.75;12.07;;;-4.30;99.90;;;;;;5031787;28;20241;-58
2024/01/19 05:59:58;;;;;;;24.92;11.40;;;-4.30;99.90;;;;;;5015452;28;20227;-58
2024/01/19 06:02:26;;;;;;;21.90;10.75;;;-4.30;99.90;;;;;;5014316;28;20215;-58
2024/01/19 06:04:53;;;;;;;19.42;10.80;;;-4.30;99.90;;;;;;5014213;28;20219;-58
2024/01/19 06:07:22;;;;;;;22.52;13.10;;;-4.40;99.90;;;;;;5014365;28;20251;-58
2024/01/19 06:09:50;;;;;;;25.35;12.60;;;-4.40;99.90;;;;;;5013668;28;20293;-58
2024/01/19 06:12:19;;;;;;;21.65;10.60;;;-4.40;99.90;;;;;;5020225;28;20222;-57
2024/01/19 06:14:47;;;;;;;23.70;12.88;;;-4.40;99.90;;;;;;5020420;28;20238;-58
2024/01/19 06:17:15;;;;;;;24.10;11.82;;;-4.40;99.90;;;;;;5021962;28;20203;-58
2024/01/19 06:19:43;;;;;;;22.58;11.63;;;-4.40;99.90;;;;;;5026636;28;20417;-57
2024/01/19 06:22:11;;;;;;;21.42;12.00;;;-4.40;99.90;;;;;;5032714;28;20238;-58
2024/01/19 06:24:39;;;;;;;22.30;11.93;;;-4.50;99.90;;;;;;5018556;28;20294;-58
2024/01/19 06:27:07;;;;;;;23.85;11.90;;;-4.50;99.90;;;;;;5013739;28;20262;-58
2024/01/19 06:29:36;;;;;;;29.13;13.32;;;-4.50;99.90;;;;;;5013569;28;20255;-59
2024/01/19 06:32:04;;;;;;;25.33;13.55;;;-4.50;99.90;;;;;;5013421;28;20294;-57
2024/01/19 06:34:32;;;;;;;25.73;13.05;;;-4.50;99.90;;;;;;5013374;28;20207;-58
2024/01/19 06:37:00;;;;;;;22.25;12.77;;;-4.50;99.90;;;;;;5012790;28;20701;-58
2024/01/19 06:39:29;;;;;;;22.27;13.02;;;-4.50;99.90;;;;;;5015012;28;20410;-59
2024/01/19 06:41:56;;;;;;;23.63;12.85;;;-4.50;99.90;;;;;;5013673;28;20262;-56
2024/01/19 06:44:24;;;;;;;26.55;13.40;;;-4.50;99.90;;;;;;5013069;28;20208;-57
2024/01/19 06:46:54;;;;;;;29.30;12.82;;;-4.50;99.90;;;;;;5013463;28;20211;-57
2024/01/19 06:49:22;;;;;;;27.58;13.38;;;-4.50;99.90;;;;;;5012665;28;20223;-57
2024/01/19 06:51:50;;;;;;;27.65;12.50;;;-4.50;99.90;;;;;;5013056;28;20203;-57
2024/01/19 06:54:18;;;;;;;26.70;13.80;;;-4.50;99.90;;;;;;5005029;28;20230;-56
2024/01/19 06:56:46;;;;;;;20.15;11.45;;;-4.50;99.90;;;;;;5013196;28;20314;-58
2024/01/19 06:59:13;;;;;;;26.75;12.30;;;-4.50;99.90;;;;;;5012973;28;20219;-58
2024/01/19 07:01:41;;;;;;;22.92;12.30;;;-4.50;99.90;;;;;;5013033;28;20265;-58
2024/01/19 07:04:10;;;;;;;22.88;11.45;;;-4.50;99.90;;;;;;5012801;28;20250;-58
2024/01/19 07:06:38;;;;;;;26.80;13.02;;;-4.50;99.90;;;;;;5013058;28;20210;-59
2024/01/19 07:09:08;;;;;;;26.33;12.40;;;-4.50;99.90;;;;;;5012552;28;20589;-57
2024/01/19 07:11:36;;;;;;;27.00;13.32;;;-4.50;99.90;;;;;;5012924;28;20195;-58
2024/01/19 07:14:04;;;;;;;24.80;13.18;;;-4.50;99.90;;;;;;5012758;28;20203;-58
2024/01/19 07:16:32;;;;;;;29.40;13.02;;;-4.50;99.90;;;;;;5013011;28;20239;-58
2024/01/19 07:18:59;;;;;;;25.33;13.00;;;-4.50;99.90;;;;;;5012586;28;20215;-58
2024/01/19 07:21:29;;;;;;;21.05;12.20;;;-4.50;99.90;;;;;;5012391;28;20293;-57
2024/01/19 07:23:57;;;;;;;26.70;12.88;;;-4.50;99.90;;;;;;5012724;28;20297;-58
2024/01/19 07:26:25;;;;;;;26.13;12.60;;;-4.50;99.90;;;;;;5013138;28;20277;-58
2024/01/19 07:28:52;;;;;;;25.00;12.65;;;-4.50;99.90;;;;;;5012606;28;20203;-57
2024/01/19 07:31:20;;;;;;;22.92;13.10;;;-4.40;99.90;;;;;;5004288;28;20298;-58
2024/01/19 07:33:48;;;;;;;23.90;12.57;;;-4.40;99.90;;;;;;5012450;28;20672;-58
2024/01/19 07:36:16;;;;;;;24.30;12.38;;;-4.40;99.90;;;;;;5012061;28;20699;-59
2024/01/19 07:38:45;;;;;;;31.92;13.25;;;-4.40;99.90;;;;;;5012615;28;20211;-58
2024/01/19 07:41:13;;;;;;;24.80;12.63;;;-4.40;99.90;;;;;;5011875;28;20228;-59
2024/01/19 07:43:41;;;;;;;23.08;12.85;;;-4.40;99.90;;;;;;5011858;28;20259;-57
2024/01/19 07:46:11;;;;;;;27.85;13.13;;;-4.40;99.90;;;;;;5012190;28;20278;-58
2024/01/19 07:48:38;;;;;;;26.67;13.68;;;-4.40;99.90;;;;;;5011218;28;20207;-59
2024/01/19 07:51:06;;;;;;;27.38;13.20;;;-4.40;99.90;;;;;;5011673;28;20235;-58
2024/01/19 07:53:34;;;;;;;32.45;14.15;;;-4.40;99.90;;;;;;5012309;28;20882;-58
2024/01/19 07:56:04;;;;;;;27.05;13.98;;;-4.30;99.90;;;;;;5012015;28;20211;-58
2024/01/19 07:58:32;;;;;;;28.08;14.27;;;-4.30;99.90;;;;;;5012224;28;20258;-58
2024/01/19 08:01:00;;;;;;;32.53;15.60;;;-4.30;99.90;;;;;;5011603;28;20259;-58
2024/01/19 08:03:28;;;;;;;35.88;15.25;;;-4.30;99.90;;;;;;5012032;28;20600;-58
2024/01/19 08:05:56;;;;;;;28.27;14.43;;;-4.20;99.90;;;;;;5012005;28;20580;-57
2024/01/19 08:08:24;;;;;;;31.73;14.20;;;-4.20;99.90;;;;;;5012178;28;20250;-58
2024/01/19 08:10:51;;;;;;;24.90;14.05;;;-4.10;99.90;;;;;;5011778;28;20223;-57
2024/01/19 08:13:21;;;;;;;27.92;14.27;;;-4.10;99.90;;;;;;5012010;28;20202;-58
2024/01/19 08:15:49;;;;;;;25.27;13.65;;;-4.00;99.90;;;;;;5011829;28;20234;-57
2024/01/19 08:18:17;;;;;;;29.42;14.60;;;-3.90;99.90;;;;;;5012142;28;20207;-58
2024/01/19 08:20:45;;;;;;;25.38;14.07;;;-3.80;99.90;;;;;;5011693;28;20318;-59
2024/01/19 08:23:13;;;;;;;29.27;14.55;;;-3.70;99.90;;;;;;5011863;28;20708;-59
2024/01/19 08:25:41;;;;;;;26.65;14.23;;;-3.60;99.90;;;;;;5011717;28;20234;-58
2024/01/19 08:28:09;;;;;;;25.25;14.00;;;-3.50;99.90;;;;;;5011712;28;20211;-57
2024/01/19 08:30:38;;;;;;;27.20;14.85;;;-3.40;99.90;;;;;;5010470;28;20227;-57
2024/01/19 08:33:07;;;;;;;24.75;13.43;;;-3.30;99.90;;;;;;5012117;28;20230;-58
2024/01/19 08:35:35;;;;;;;28.23;14.70;;;-3.20;99.90;;;;;;5011489;28;20203;-58
2024/01/19 08:38:03;;;;;;;28.40;14.38;;;-3.00;99.90;;;;;;5011848;28;20243;-59
2024/01/19 08:40:31;;;;;;;28.90;15.73;;;-2.90;99.90;;;;;;5011232;28;20231;-58
2024/01/19 08:42:59;;;;;;;26.92;15.13;;;-2.80;99.90;;;;;;5011559;28;20254;-58
2024/01/19 08:45:30;;;;;;;29.90;15.07;;;-2.70;99.90;;;;;;5010782;28;20207;-57
2024/01/19 08:48:00;;;;;;;30.90;17.25;;;-2.70;99.90;;;;;;5011780;28;20277;-57
2024/01/19 08:50:28;;;;;;;29.50;16.83;;;-2.60;99.90;;;;;;5011066;28;20233;-59
2024/01/19 08:52:56;;;;;;;24.55;14.68;;;-2.60;99.90;;;;;;5011830;28;20213;-58
2024/01/19 08:55:25;;;;;;;27.42;16.23;;;-2.60;99.90;;;;;;5006417;28;20234;-59
2024/01/19 08:57:53;;;;;;;28.73;16.17;;;-2.60;99.90;;;;;;5015671;28;20211;-58
2024/01/19 09:00:21;;;;;;;27.65;15.43;;;-2.60;99.90;;;;;;5014800;28;20582;-59
2024/01/19 09:02:49;;;;;;;28.67;15.23;;;-2.50;99.90;;;;;;5012515;28;20712;-59
2024/01/19 09:05:31;;;;;;;31.02;15.18;;;-2.40;99.90;;;;;;5013330;28;20210;-61
2024/01/19 09:07:59;;;;;;;27.77;15.50;;;-2.40;99.90;;;;;;5014868;28;20225;-58
2024/01/19 09:10:29;;;;;;;26.67;15.10;;;-2.40;99.90;;;;;;5014111;28;20827;-60
2024/01/19 09:12:57;;;;;;;28.13;14.63;;;-2.40;99.90;;;;;;5015059;28;20206;-59
2024/01/19 09:15:25;;;;;;;26.08;15.38;;;-2.30;99.90;;;;;;5014745;28;20204;-60
2024/01/19 09:17:52;;;;;;;27.27;15.88;;;-2.20;99.90;;;;;;5014950;28;20277;-59
2024/01/19 09:20:21;;;;;;;24.13;15.13;;;-1.90;99.90;;;;;;5013393;28;20290;-59
2024/01/19 09:22:50;;;;;;;27.30;15.02;;;-1.80;99.90;;;;;;5014968;28;20223;-60
2024/01/19 09:25:18;;;;;;;26.65;15.35;;;-1.80;99.90;;;;;;5014372;28;20632;-59
2024/01/19 09:27:45;;;;;;;23.55;14.93;;;-1.80;99.90;;;;;;5014945;28;20239;-60
2024/01/19 09:30:14;;;;;;;32.83;15.13;;;-1.70;99.90;;;;;;5013592;28;20242;-61
2024/01/19 09:32:42;;;;;;;26.00;15.35;;;-1.60;99.90;;;;;;5014591;28;20298;-59
2024/01/19 09:35:10;;;;;;;32.70;16.08;;;-1.60;99.90;;;;;;5013909;28;20586;-60
2024/01/19 09:37:38;;;;;;;26.27;15.35;;;-1.50;99.90;;;;;;5014566;28;20693;-59
2024/01/19 09:40:09;;;;;;;30.60;17.15;;;-1.50;99.90;;;;;;5013520;28;20235;-60
2024/01/19 09:42:36;;;;;;;33.35;16.20;;;-1.60;99.90;;;;;;5014497;28;20204;-60
2024/01/19 09:45:05;;;;;;;32.75;16.15;;;-1.60;99.90;;;;;;5013966;28;20246;-60
2024/01/19 09:47:41;;;;;;;31.85;16.48;;;-1.60;99.90;;;;;;5014459;28;20262;-60
2024/01/19 09:50:10;;;;;;;27.05;15.27;;;-1.60;99.90;;;;;;5013341;28;20277;-60
2024/01/19 09:52:49;;;;;;;28.83;16.90;;;-1.60;99.90;;;;;;5014616;28;20215;-59
2024/01/19 09:55:18;;;;;;;26.13;14.65;;;-1.60;99.90;;;;;;5013830;28;20677;-60
2024/01/19 09:57:47;;;;;;;30.48;15.23;;;-1.70;99.90;;;;;;5014070;28;20637;-59
2024/01/19 10:00:16;;;;;;;25.77;13.73;;;-1.70;99.90;;;;;;5013043;28;20227;-58
2024/01/19 10:02:45;;;;;;;30.38;14.80;;;-1.70;99.90;;;;;;5013936;28;20214;-60
2024/01/19 10:05:13;;;;;;;26.15;14.60;;;-1.70;99.90;;;;;;5013200;28;20242;-60
2024/01/19 10:07:42;;;;;;;27.38;14.50;;;-1.60;99.90;;;;;;5013974;28;20234;-60
2024/01/19 10:10:10;;;;;;;29.73;15.18;;;-1.50;99.90;;;;;;5012685;28;20254;-59
2024/01/19 10:12:39;;;;;;;30.15;15.73;;;-1.40;99.90;;;;;;5014225;28;20230;-60
2024/01/19 10:15:11;;;;;;;27.50;15.23;;;-1.30;99.90;;;;;;5013611;28;20234;-61
2024/01/19 10:17:39;;;;;;;28.98;14.65;;;-1.10;99.90;;;;;;5013764;28;20230;-59
2024/01/19 10:20:09;;;;;;;24.90;14.57;;;-1.00;99.90;;;;;;5012560;28;20227;-60
2024/01/19 10:22:37;;;;;;;27.30;15.02;;;-0.90;99.90;;;;;;5013671;28;20218;-60
2024/01/19 10:25:05;;;;;;;27.52;16.23;;;-0.80;99.90;;;;;;5013005;28;20270;-60
2024/01/19 10:27:51;;;;;;;28.48;15.60;;;-0.70;99.90;;;;;;5013567;28;20242;-60
2024/01/19 10:30:20;;;;;;;24.75;13.63;;;-0.70;99.90;;;;;;5011379;28;20231;-61
2024/01/19 10:32:49;;;;;;;25.92;14.30;;;-0.60;99.90;;;;;;5013594;28;20256;-60
2024/01/19 10:35:18;;;;;;;21.10;13.85;;;-0.40;99.90;;;;;;5012781;28;20289;-61
2024/01/19 10:37:46;;;;;;;24.95;14.05;;;-0.30;99.90;;;;;;5013336;28;20207;-60
2024/01/19 10:40:19;;;;;;;28.58;14.80;;;-0.30;99.90;;;;;;5012167;28;20266;-60
2024/01/19 10:42:48;;;;;;;24.52;14.40;;;-0.10;99.90;;;;;;5013665;28;20242;-60
2024/01/19 10:45:19;;;;;;;28.35;13.43;;;0.10;99.90;;;;;;5013135;28;20297;-60
2024/01/19 10:47:47;;;;;;;27.25;13.68;;;0.40;99.90;;;;;;5013403;28;20207;-60
2024/01/19 10:50:15;;;;;;;26.45;14.02;;;0.60;99.90;;;;;;5012907;28;20649;-60
2024/01/19 10:52:44;;;;;;;25.42;13.20;;;0.70;99.90;;;;;;5013391;28;20207;-60
2024/01/19 10:55:17;;;;;;;21.42;12.65;;;0.60;99.90;;;;;;5012912;28;20203;-60
2024/01/19 10:57:45;;;;;;;24.80;13.15;;;0.60;99.90;;;;;;5013279;28;20285;-60
2024/01/19 11:00:22;;;;;;;23.40;12.98;;;0.60;99.90;;;;;;5012617;28;20281;-60
2024/01/19 11:02:52;;;;;;;21.38;12.70;;;0.50;99.90;;;;;;5020071;28;20272;-61
2024/01/19 11:05:20;;;;;;;21.20;11.57;;;0.60;99.90;;;;;;5029003;28;20700;-61
2024/01/19 11:07:50;;;;;;;18.70;11.82;;;0.90;99.90;;;;;;5026032;28;20231;-61
2024/01/19 11:10:19;;;;;;;22.75;11.20;;;1.20;99.90;;;;;;5030401;28;20230;-60
2024/01/19 11:12:52;;;;;;;18.50;11.52;;;1.20;99.90;;;;;;5046011;22;20299;-62
2024/01/19 11:15:29;;;;;;;18.70;11.15;;;1.10;99.90;;;;;;5052383;28;20640;-62
2024/01/19 11:17:58;;;;;;;22.83;12.48;;;0.90;99.90;;;;;;5047801;28;20689;-62
2024/01/19 11:20:28;;;;;;;22.42;12.45;;;0.80;99.90;;;;;;5066405;28;20606;-62
2024/01/19 11:22:56;;;;;;;21.25;12.15;;;0.80;99.90;;;;;;5065558;28;20229;-62
2024/01/19 11:25:31;;;;;;;23.33;14.35;;;0.80;99.90;;;;;;5052070;28;20297;-61
2024/01/19 11:28:02;;;;;;;27.15;14.52;;;0.80;99.90;;;;;;5052513;28;20209;-62
2024/01/19 11:30:39;;;;;;;29.42;15.30;;;0.70;99.90;;;;;;5051719;28;20245;-62
2024/01/19 11:33:19;;;;;;;25.30;14.15;;;0.70;99.90;;;;;;5052117;28;20230;-62
2024/01/19 11:35:49;;;;;;;29.30;15.40;;;0.80;99.90;;;;;;5051075;28;20580;-62
2024/01/19 11:38:44;;;;;;;32.28;14.85;;;0.90;99.90;;;;;;5052256;28;20206;-62
2024/01/19 11:41:48;;;;;;;24.77;15.10;;;1.00;99.90;;;;;;5051672;28;20283;-61
2024/01/19 11:44:44;;;;;;;26.80;15.32;;;1.00;99.90;;;;;;5051644;28;20233;-61
2024/01/19 11:47:46;;;;;;;23.40;14.52;;;1.00;99.90;;;;;;5047098;28;20208;-61
2024/01/19 11:50:14;;;;;;;31.15;15.27;;;1.10;99.90;;;;;;5009388;28;20203;-61
2024/01/19 11:52:45;;;;;;;28.48;15.45;;;1.20;99.90;;;;;;5005113;28;20227;-61
2024/01/19 11:55:38;;;;;;;26.63;16.58;;;1.20;99.90;;;;;;5038425;28;20205;-61
2024/01/19 11:58:28;;;;;;;29.33;15.40;;;1.10;99.90;;;;;;5063639;28;20209;-62
2024/01/19 12:00:57;;;;;;;27.42;15.43;;;1.00;99.90;;;;;;5050879;28;20214;-62
2024/01/19 12:03:26;;;;;;;27.55;15.95;;;0.90;99.90;;;;;;5051544;28;20728;-62
2024/01/19 12:05:57;;;;;;;29.90;15.75;;;0.90;99.90;;;;;;5050799;28;20367;-62
2024/01/19 12:08:25;;;;;;;31.65;16.80;;;0.90;99.90;;;;;;5051352;28;20216;-62
2024/01/19 12:11:06;;;;;;;26.33;16.05;;;1.10;99.90;;;;;;5051067;28;20206;-62
2024/01/19 12:13:36;;;;;;;30.00;16.08;;;1.30;99.90;;;;;;5051347;28;20304;-61
2024/01/19 12:16:07;;;;;;;28.10;16.23;;;1.40;99.90;;;;;;5051479;28;20217;-62
2024/01/19 12:18:37;;;;;;;23.20;15.10;;;1.40;99.90;;;;;;5051447;28;20293;-61
2024/01/19 12:21:06;;;;;;;28.15;15.90;;;1.30;99.90;;;;;;5051171;28;20332;-62
2024/01/19 12:23:34;;;;;;;29.23;17.02;;;1.30;99.90;;;;;;5051227;28;20248;-62
2024/01/19 12:26:03;;;;;;;26.83;16.73;;;1.30;99.90;;;;;;5049520;28;20316;-62
2024/01/19 12:28:33;;;;;;;32.05;17.05;;;1.30;99.90;;;;;;5051771;28;20280;-61
2024/01/19 12:31:01;;;;;;;30.17;16.45;;;1.30;99.90;;;;;;5057155;28;20637;-62
2024/01/19 12:33:30;;;;;;;29.13;16.63;;;1.30;99.90;;;;;;5060083;28;20276;-62
2024/01/19 12:36:06;;;;;;;30.38;16.45;;;1.30;99.90;;;;;;5058058;28;20208;-61
2024/01/19 12:38:34;;;;;;;31.65;17.92;;;1.30;99.90;;;;;;5077554;28;20287;-61
2024/01/19 12:41:04;;;;;;;29.13;17.50;;;1.40;99.90;;;;;;5061435;28;20263;-62